Time;durP1;ratioP1;P1;durP2;ratioP2;P2;SDS_P1;SDS_P2;PMS_P1;PMS_P2;Temp;Humidity;BMP_temperature;BMP_pressure;BME280_temperature;BME280_humidity;BME280_pressure;Samples;Min_cycle;Max_cycle;Signal;HPM_P1;HPM_P2
2023/04/12 00:01:41;;;;;;;1.83;1.20;;;10.50;99.90;;;;;;5052851;28;20163;-71
2023/04/12 00:04:08;;;;;;;8.57;1.70;;;10.50;99.90;;;;;;5052737;28;20560;-71
2023/04/12 00:06:35;;;;;;;2.63;1.90;;;10.40;99.90;;;;;;5052792;28;20174;-72
2023/04/12 00:09:02;;;;;;;8.13;2.20;;;10.40;99.90;;;;;;5052583;28;20810;-71
2023/04/12 00:11:30;;;;;;;2.93;1.83;;;10.30;99.90;;;;;;5052684;28;20846;-72
2023/04/12 00:13:56;;;;;;;3.13;1.40;;;10.20;99.90;;;;;;5052555;28;20535;-71
2023/04/12 00:16:21;;;;;;;2.53;1.00;;;10.20;99.90;;;;;;5052615;28;20986;-72
2023/04/12 00:18:47;;;;;;;9.23;1.90;;;10.10;99.90;;;;;;5052193;28;20449;-73
2023/04/12 00:21:16;;;;;;;2.00;0.87;;;10.10;99.90;;;;;;5052583;28;20167;-71
2023/04/12 00:23:43;;;;;;;8.23;1.73;;;10.10;99.90;;;;;;5052425;28;20182;-72
2023/04/12 00:26:09;;;;;;;3.37;1.30;;;10.00;99.90;;;;;;5052215;28;20796;-73
2023/04/12 00:28:34;;;;;;;7.53;1.20;;;9.90;99.90;;;;;;5052104;28;20394;-71
2023/04/12 00:31:01;;;;;;;1.73;1.40;;;9.80;99.90;;;;;;5052571;28;20178;-72
2023/04/12 00:33:26;;;;;;;7.30;1.40;;;9.70;99.90;;;;;;5051310;28;20166;-72
2023/04/12 00:35:52;;;;;;;4.00;1.70;;;9.70;99.90;;;;;;5053021;28;20420;-72
2023/04/12 00:38:18;;;;;;;2.93;1.20;;;9.70;99.90;;;;;;5051647;28;20190;-73
2023/04/12 00:40:43;;;;;;;2.27;1.10;;;9.70;99.90;;;;;;5052312;28;20194;-72
2023/04/12 00:43:14;;;;;;;4.03;1.40;;;9.70;99.90;;;;;;5052109;28;20256;-72
2023/04/12 00:45:39;;;;;;;6.60;1.47;;;9.70;99.90;;;;;;5052071;28;20404;-71
2023/04/12 00:48:05;;;;;;;1.83;1.43;;;9.80;99.90;;;;;;5051474;28;20402;-72
2023/04/12 00:50:31;;;;;;;4.07;1.50;;;9.70;99.90;;;;;;5052208;28;20190;-72
2023/04/12 00:52:57;;;;;;;3.93;1.37;;;9.70;99.90;;;;;;5051686;28;20213;-73
2023/04/12 00:55:23;;;;;;;2.80;1.60;;;9.70;99.90;;;;;;5051787;28;20186;-72
2023/04/12 00:57:48;;;;;;;2.50;1.50;;;9.70;99.90;;;;;;5051380;28;20456;-72
2023/04/12 01:00:15;;;;;;;3.47;1.70;;;9.60;99.90;;;;;;5052011;28;20624;-71
2023/04/12 01:02:49;;;;;;;4.60;1.50;;;9.50;99.90;;;;;;5052052;28;20216;-72
2023/04/12 01:05:20;;;;;;;4.73;1.50;;;9.40;99.90;;;;;;5051868;28;20957;-72
2023/04/12 01:08:11;;;;;;;2.50;1.43;;;9.40;99.90;;;;;;5051582;28;20975;-71
2023/04/12 01:10:56;;;;;;;3.40;1.13;;;9.30;99.90;;;;;;5052086;28;20409;-71
2023/04/12 01:13:43;;;;;;;3.33;1.10;;;9.10;99.90;;;;;;5051643;28;20425;-72
2023/04/12 01:16:24;;;;;;;2.90;1.43;;;9.00;99.90;;;;;;5051842;28;20404;-72
2023/04/12 01:18:58;;;;;;;4.43;1.47;;;8.90;99.90;;;;;;5051349;28;20452;-71
2023/04/12 01:21:39;;;;;;;1.40;1.20;;;8.80;99.90;;;;;;5051870;28;20401;-71
2023/04/12 01:24:34;;;;;;;4.70;2.07;;;8.80;99.90;;;;;;5051654;28;20933;-72
2023/04/12 01:27:02;;;;;;;1.53;1.20;;;8.70;99.90;;;;;;5050178;28;20437;-71
2023/04/12 01:29:29;;;;;;;4.50;1.30;;;8.60;99.90;;;;;;5051614;28;20397;-71
2023/04/12 01:32:00;;;;;;;4.30;1.97;;;8.60;99.90;;;;;;5050325;28;20401;-72
2023/04/12 01:34:29;;;;;;;2.20;1.40;;;8.60;99.90;;;;;;5051468;28;20463;-71
2023/04/12 01:36:57;;;;;;;1.73;1.20;;;8.50;99.90;;;;;;5051074;28;20393;-73
2023/04/12 01:39:23;;;;;;;1.23;1.03;;;8.50;99.90;;;;;;5051539;28;20406;-71
2023/04/12 01:41:49;;;;;;;1.33;1.20;;;8.50;99.90;;;;;;5051674;28;20416;-71
2023/04/12 01:44:18;;;;;;;6.07;1.57;;;8.50;99.90;;;;;;5050179;28;20668;-71
2023/04/12 01:46:46;;;;;;;2.10;1.10;;;8.50;99.90;;;;;;5051480;28;20381;-72
2023/04/12 02:16:09;;;;;;;6.57;2.13;;;8.30;99.90;;;;;;5053696;28;20947;-71
2023/04/12 02:18:35;;;;;;;2.03;1.40;;;8.20;99.90;;;;;;5054463;28;20524;-71
2023/04/12 02:21:00;;;;;;;3.37;1.70;;;8.20;99.90;;;;;;5054791;28;20873;-71
2023/04/12 02:23:26;;;;;;;1.87;1.13;;;8.30;99.90;;;;;;5054750;28;20182;-71
2023/04/12 02:25:51;;;;;;;4.13;1.50;;;8.30;99.90;;;;;;5054640;28;20171;-71
2023/04/12 02:28:17;;;;;;;2.57;1.40;;;8.30;99.90;;;;;;5054324;28;20189;-72
2023/04/12 02:30:42;;;;;;;1.30;1.20;;;8.30;99.90;;;;;;5054632;28;20178;-71
2023/04/12 02:33:08;;;;;;;2.30;2.10;;;8.20;99.90;;;;;;5054619;28;20564;-71
2023/04/12 02:35:37;;;;;;;1.77;1.37;;;8.20;99.90;;;;;;5053090;28;20205;-71
2023/04/12 03:11:41;;;;;;;3.17;1.30;;;7.90;99.90;;;;;;5052224;28;20396;-73
2023/04/12 03:14:07;;;;;;;2.13;1.83;;;8.00;99.90;;;;;;5052358;28;20975;-71
2023/04/12 03:16:34;;;;;;;2.00;1.30;;;8.00;99.90;;;;;;5052477;28;20235;-71
2023/04/12 03:18:59;;;;;;;1.83;1.37;;;8.00;99.90;;;;;;5052124;28;20683;-73
2023/04/12 03:21:27;;;;;;;2.10;1.20;;;8.00;99.90;;;;;;5053714;28;20459;-71
2023/04/12 03:23:52;;;;;;;2.93;1.47;;;8.00;99.90;;;;;;5053716;28;20183;-71
2023/04/12 03:26:19;;;;;;;2.20;1.77;;;8.00;99.90;;;;;;5053582;28;20892;-72
2023/04/12 03:28:45;;;;;;;1.43;1.17;;;8.10;99.90;;;;;;5053217;28;20216;-72
2023/04/12 03:31:11;;;;;;;1.63;1.17;;;8.10;99.90;;;;;;5053564;28;20416;-72
2023/04/12 03:33:37;;;;;;;1.30;1.20;;;8.10;99.90;;;;;;5053397;28;20409;-71
2023/04/12 03:36:04;;;;;;;2.23;1.17;;;8.10;99.90;;;;;;5053397;28;20762;-71
2023/04/12 03:38:29;;;;;;;1.93;1.50;;;8.00;99.90;;;;;;5052845;28;20468;-71
2023/04/12 03:40:55;;;;;;;4.47;1.33;;;8.00;99.90;;;;;;5053396;28;20405;-72
2023/04/12 03:43:21;;;;;;;4.17;1.60;;;8.00;99.90;;;;;;5053257;28;20163;-72
2023/04/12 03:45:46;;;;;;;1.80;1.10;;;8.00;99.90;;;;;;5053218;28;20252;-72
2023/04/12 03:48:12;;;;;;;1.13;0.90;;;8.00;99.90;;;;;;5052742;28;20451;-70
2023/04/12 03:50:43;;;;;;;1.20;1.07;;;8.00;99.90;;;;;;5053153;28;20182;-71
2023/04/12 03:53:09;;;;;;;3.47;2.10;;;8.00;99.90;;;;;;5053110;28;20274;-71
2023/04/12 03:55:36;;;;;;;1.40;1.17;;;8.00;99.90;;;;;;5052840;28;20825;-70
2023/04/12 03:58:02;;;;;;;4.17;2.60;;;8.00;99.90;;;;;;5052470;28;20457;-72
2023/04/12 04:00:28;;;;;;;2.10;1.60;;;8.10;99.90;;;;;;5051583;28;20413;-71
2023/04/12 04:02:53;;;;;;;3.50;1.60;;;8.10;99.90;;;;;;5051664;28;20488;-71
2023/04/12 04:05:19;;;;;;;1.53;1.43;;;8.10;99.90;;;;;;5052682;28;20509;-71
2023/04/12 04:07:44;;;;;;;2.23;1.33;;;8.10;99.90;;;;;;5052455;28;20166;-72
2023/04/12 04:10:10;;;;;;;4.60;2.10;;;8.10;99.90;;;;;;5052540;28;20163;-71
2023/04/12 04:12:36;;;;;;;1.43;1.33;;;8.10;99.90;;;;;;5052554;28;20186;-71
2023/04/12 04:15:01;;;;;;;1.73;1.63;;;8.10;99.90;;;;;;5052423;28;20198;-71
2023/04/12 04:17:27;;;;;;;2.53;1.43;;;8.10;99.90;;;;;;5051987;28;20186;-71
2023/04/12 04:19:52;;;;;;;2.87;2.00;;;8.00;99.90;;;;;;5052197;28;20531;-72
2023/04/12 04:22:20;;;;;;;2.30;1.70;;;8.00;99.90;;;;;;5052036;28;20194;-72
2023/04/12 04:24:47;;;;;;;1.40;1.27;;;7.90;99.90;;;;;;5052400;28;20786;-72
2023/04/12 04:27:14;;;;;;;3.60;1.50;;;7.90;99.90;;;;;;5052144;28;20424;-72
2023/04/12 04:29:44;;;;;;;2.40;1.83;;;7.90;99.90;;;;;;5052960;28;20421;-73
2023/04/12 04:32:10;;;;;;;1.57;1.40;;;7.90;99.90;;;;;;5052399;28;20965;-72
2023/04/12 04:34:36;;;;;;;8.00;1.70;;;7.90;99.90;;;;;;5055667;28;20405;-72
2023/04/12 04:37:01;;;;;;;2.93;2.23;;;7.90;99.90;;;;;;5051722;28;20405;-74
2023/04/12 04:39:27;;;;;;;4.60;1.87;;;7.90;99.90;;;;;;5052295;28;20163;-73
2023/04/12 04:41:53;;;;;;;2.67;2.13;;;7.80;99.90;;;;;;5052161;28;20666;-72
2023/04/12 04:44:19;;;;;;;2.00;1.60;;;7.80;99.90;;;;;;5052022;28;20189;-72
2023/04/12 04:46:45;;;;;;;2.27;2.07;;;7.80;99.90;;;;;;5052157;28;20420;-72
2023/04/12 04:49:11;;;;;;;2.67;2.47;;;7.80;99.90;;;;;;5055385;28;20401;-73
2023/04/12 04:51:37;;;;;;;4.30;3.07;;;7.80;99.90;;;;;;5064198;28;20444;-73
2023/04/12 04:54:03;;;;;;;3.33;2.33;;;7.80;99.90;;;;;;5054138;28;20431;-72
2023/04/12 04:56:28;;;;;;;3.50;1.80;;;7.80;99.90;;;;;;5051557;28;20179;-71
2023/04/12 04:58:54;;;;;;;8.87;3.47;;;7.80;99.90;;;;;;5051489;28;20197;-72
2023/04/12 05:01:19;;;;;;;3.90;2.57;;;7.80;99.90;;;;;;5054678;28;20163;-72
2023/04/12 05:03:45;;;;;;;6.53;3.03;;;7.80;99.90;;;;;;5055457;28;20660;-72
2023/04/12 05:06:10;;;;;;;5.57;2.50;;;7.80;99.90;;;;;;5053691;28;20529;-73
2023/04/12 05:08:36;;;;;;;4.10;2.57;;;7.80;99.90;;;;;;5052879;28;20162;-73
2023/04/12 05:11:02;;;;;;;3.60;2.73;;;7.70;99.90;;;;;;5052227;28;20678;-72
2023/04/12 05:13:28;;;;;;;2.97;2.70;;;7.70;99.90;;;;;;5051660;28;20183;-71
2023/04/12 05:15:53;;;;;;;3.40;2.40;;;7.70;99.90;;;;;;5051780;28;20602;-70
2023/04/12 05:18:19;;;;;;;4.70;3.10;;;7.70;99.90;;;;;;5051387;28;20194;-71
2023/04/12 05:20:45;;;;;;;5.93;3.60;;;7.70;99.90;;;;;;5051932;28;20654;-70
2023/04/12 05:23:10;;;;;;;3.63;3.33;;;7.80;99.90;;;;;;5051830;28;20573;-71
2023/04/12 05:25:36;;;;;;;3.13;2.80;;;7.80;99.90;;;;;;5050766;28;20513;-70
2023/04/12 05:28:02;;;;;;;4.23;3.20;;;7.80;99.90;;;;;;5052472;28;20733;-70
2023/04/12 05:30:28;;;;;;;8.20;3.40;;;7.90;99.90;;;;;;5051970;28;20254;-71
2023/04/12 05:32:53;;;;;;;4.33;2.77;;;7.90;99.90;;;;;;5051903;28;20188;-71
2023/04/12 05:35:19;;;;;;;2.80;2.60;;;7.80;99.90;;;;;;5053638;28;20429;-71
2023/04/12 05:37:44;;;;;;;6.40;3.27;;;7.90;99.90;;;;;;5055979;28;20273;-71
2023/04/12 05:40:10;;;;;;;5.20;2.70;;;7.90;99.90;;;;;;5055185;28;20163;-70
2023/04/12 05:42:36;;;;;;;4.27;3.10;;;7.90;99.90;;;;;;5055475;28;20159;-70
2023/04/12 05:45:02;;;;;;;4.60;3.57;;;7.90;99.90;;;;;;5055557;28;20258;-69
2023/04/12 05:47:28;;;;;;;6.33;3.43;;;7.90;99.90;;;;;;5054815;28;20289;-70
2023/04/12 05:49:54;;;;;;;2.63;2.37;;;8.00;99.90;;;;;;5055463;28;20965;-69
2023/04/12 05:52:19;;;;;;;3.13;2.60;;;8.00;99.90;;;;;;5055407;28;20719;-69
2023/04/12 05:54:45;;;;;;;3.57;3.17;;;8.00;99.90;;;;;;5055231;28;20187;-69
2023/04/12 05:57:11;;;;;;;4.00;3.00;;;8.00;99.90;;;;;;5055342;28;20647;-69
2023/04/12 05:59:36;;;;;;;4.87;3.27;;;8.00;99.90;;;;;;5055297;28;20163;-69
2023/04/12 06:02:02;;;;;;;4.60;4.00;;;8.00;99.90;;;;;;5055161;28;20401;-70
2023/04/12 06:04:28;;;;;;;5.73;4.00;;;8.00;99.90;;;;;;5055002;28;20616;-70
2023/04/12 06:06:55;;;;;;;9.20;4.90;;;8.00;99.90;;;;;;5054974;28;20171;-69
2023/04/12 06:09:20;;;;;;;7.40;3.77;;;8.10;99.90;;;;;;5055031;28;20162;-69
2023/04/12 06:11:46;;;;;;;7.47;4.00;;;8.00;99.90;;;;;;5055172;28;20420;-68
2023/04/12 06:14:11;;;;;;;5.67;3.10;;;8.00;99.90;;;;;;5054985;28;20249;-69
2023/04/12 06:16:37;;;;;;;4.80;3.50;;;8.10;99.90;;;;;;5055119;28;20683;-69
2023/04/12 06:19:03;;;;;;;6.10;3.77;;;8.10;99.90;;;;;;5054632;28;20249;-69
2023/04/12 06:21:28;;;;;;;4.13;3.33;;;8.10;99.90;;;;;;5055115;28;20216;-69
2023/04/12 06:23:54;;;;;;;4.97;4.00;;;8.10;99.90;;;;;;5053806;28;20186;-69
2023/04/12 06:26:19;;;;;;;4.43;3.63;;;8.20;99.90;;;;;;5054868;28;20186;-70
2023/04/12 06:28:45;;;;;;;5.20;3.33;;;8.20;99.90;;;;;;5054442;28;20166;-70
2023/04/12 06:31:11;;;;;;;4.70;3.37;;;8.20;99.90;;;;;;5054706;28;20177;-69
2023/04/12 06:33:36;;;;;;;4.80;3.60;;;8.30;99.90;;;;;;5054609;28;20177;-70
2023/04/12 06:36:02;;;;;;;4.40;3.60;;;8.30;99.90;;;;;;5054598;28;20171;-69
2023/04/12 06:38:27;;;;;;;3.83;3.20;;;8.30;99.90;;;;;;5054082;28;20201;-70
2023/04/12 06:40:53;;;;;;;3.87;3.47;;;8.30;99.90;;;;;;5053271;28;20171;-69
2023/04/12 06:43:19;;;;;;;5.60;3.67;;;8.30;99.90;;;;;;5054352;28;20242;-70
2023/04/12 06:45:45;;;;;;;3.90;3.23;;;8.30;99.90;;;;;;5053932;28;20187;-70
2023/04/12 06:48:11;;;;;;;4.97;3.77;;;8.40;99.90;;;;;;5054197;28;20648;-71
2023/04/12 06:50:36;;;;;;;4.80;3.43;;;8.40;99.90;;;;;;5053030;28;20475;-70
2023/04/12 06:53:02;;;;;;;5.77;3.20;;;8.50;99.90;;;;;;5054274;28;20182;-71
2023/04/12 06:55:28;;;;;;;4.80;3.23;;;8.50;99.90;;;;;;5053640;28;20210;-71
2023/04/12 06:57:54;;;;;;;2.60;2.40;;;8.60;99.90;;;;;;5052823;28;20273;-70
2023/04/12 07:00:20;;;;;;;5.60;3.70;;;8.60;99.90;;;;;;5054280;28;20183;-70
2023/04/12 07:02:45;;;;;;;4.50;3.27;;;8.70;99.90;;;;;;5054148;28;20444;-71
2023/04/12 07:05:12;;;;;;;5.70;3.83;;;8.70;99.90;;;;;;5054213;28;20516;-71
2023/04/12 07:07:37;;;;;;;3.60;3.03;;;8.70;99.90;;;;;;5053612;28;20175;-71
2023/04/12 07:10:03;;;;;;;4.50;2.70;;;8.70;99.90;;;;;;5053999;28;20926;-70
2023/04/12 07:12:29;;;;;;;8.13;4.00;;;8.80;99.90;;;;;;5054043;28;20180;-72
2023/04/12 07:14:54;;;;;;;3.50;3.03;;;8.70;99.90;;;;;;5053353;28;20455;-72
2023/04/12 07:17:20;;;;;;;3.30;2.93;;;8.70;99.90;;;;;;5054126;28;20175;-72
2023/04/12 07:19:47;;;;;;;2.97;2.70;;;8.70;99.90;;;;;;5054004;28;20174;-72
2023/04/12 07:22:13;;;;;;;3.53;2.83;;;8.70;99.90;;;;;;5054219;28;20570;-71
2023/04/12 07:24:38;;;;;;;8.17;3.20;;;8.70;99.90;;;;;;5053587;28;20467;-71
2023/04/12 07:27:05;;;;;;;3.60;2.70;;;8.70;99.90;;;;;;5054412;28;20170;-72
2023/04/12 07:29:30;;;;;;;3.40;3.10;;;8.70;99.90;;;;;;5054316;28;20170;-71
2023/04/12 07:31:59;;;;;;;3.30;2.90;;;8.80;99.90;;;;;;5054239;28;20397;-71
2023/04/12 07:34:24;;;;;;;3.30;2.70;;;8.90;99.90;;;;;;5052319;28;20282;-71
2023/04/12 07:36:50;;;;;;;3.43;2.70;;;9.10;99.90;;;;;;5053452;28;21229;-71
2023/04/12 07:39:15;;;;;;;5.20;3.10;;;9.30;99.90;;;;;;5053247;28;20198;-72
2023/04/12 07:41:45;;;;;;;5.97;3.33;;;9.30;99.90;;;;;;5053256;28;20528;-71
2023/04/12 07:44:11;;;;;;;4.83;3.40;;;9.30;99.90;;;;;;5053625;28;20710;-72
2023/04/12 07:46:38;;;;;;;3.53;3.23;;;9.30;99.90;;;;;;5053554;28;20398;-72
2023/04/12 07:49:04;;;;;;;4.07;3.37;;;9.40;99.90;;;;;;5053816;28;20185;-72
2023/04/12 07:51:29;;;;;;;4.40;3.10;;;9.30;99.90;;;;;;5053389;28;20398;-72
2023/04/12 07:53:55;;;;;;;3.70;2.50;;;9.30;99.90;;;;;;5053598;28;20426;-72
2023/04/12 07:56:21;;;;;;;9.63;3.30;;;9.30;99.90;;;;;;5051769;28;20414;-72
2023/04/12 07:58:47;;;;;;;3.57;2.90;;;9.20;99.90;;;;;;5051856;28;20297;-72
2023/04/12 08:01:14;;;;;;;3.50;2.60;;;9.30;99.90;;;;;;5052734;28;20167;-73
2023/04/12 08:03:39;;;;;;;3.50;2.33;;;9.30;99.90;;;;;;5051817;28;20417;-72
2023/04/12 08:06:06;;;;;;;3.70;2.63;;;9.40;99.90;;;;;;5053194;28;20401;-73
2023/04/12 08:08:32;;;;;;;3.80;3.10;;;9.50;99.90;;;;;;5053915;28;20176;-73
2023/04/12 08:10:59;;;;;;;4.13;2.73;;;9.60;99.90;;;;;;5053861;28;20409;-73
2023/04/12 08:13:25;;;;;;;4.60;2.60;;;9.60;99.90;;;;;;5052684;28;20179;-72
2023/04/12 08:15:51;;;;;;;3.10;2.70;;;9.70;99.90;;;;;;5053194;28;20555;-73
2023/04/12 08:18:16;;;;;;;4.70;3.30;;;9.90;99.90;;;;;;5052469;28;20193;-73
2023/04/12 08:20:45;;;;;;;3.37;2.80;;;10.20;99.90;;;;;;5053398;28;20402;-73
2023/04/12 08:23:11;;;;;;;3.00;2.60;;;10.40;99.90;;;;;;5051338;28;20163;-73
2023/04/12 08:25:38;;;;;;;3.37;2.97;;;10.50;99.90;;;;;;5051110;28;20430;-73
2023/04/12 08:28:03;;;;;;;6.17;3.37;;;10.70;99.90;;;;;;5052693;28;20232;-74
2023/04/12 08:30:30;;;;;;;3.60;3.30;;;11.20;99.90;;;;;;5053541;28;20409;-73
2023/04/12 08:32:55;;;;;;;4.70;2.77;;;11.70;99.90;;;;;;5052715;28;20409;-74
2023/04/12 08:35:23;;;;;;;4.60;3.33;;;12.00;99.90;;;;;;5053137;28;20444;-73
2023/04/12 08:37:49;;;;;;;3.80;2.73;;;12.00;99.90;;;;;;5052752;28;20248;-74
2023/04/12 08:40:15;;;;;;;4.60;3.43;;;11.90;99.90;;;;;;5052975;28;20815;-73
2023/04/12 08:42:41;;;;;;;2.50;2.30;;;11.90;99.90;;;;;;5054173;28;20193;-73
2023/04/12 08:45:08;;;;;;;3.40;3.07;;;11.80;99.90;;;;;;5052393;28;20437;-73
2023/04/12 08:47:42;;;;;;;3.57;3.27;;;11.70;99.90;;;;;;5054761;28;20261;-74
2023/04/12 08:50:12;;;;;;;5.57;3.77;;;11.60;99.90;;;;;;5057163;28;20453;-74
2023/04/12 08:52:38;;;;;;;5.43;3.50;;;11.60;99.90;;;;;;5053518;28;20425;-73
2023/04/12 08:55:05;;;;;;;4.10;3.40;;;11.60;99.90;;;;;;5051934;28;20429;-74
2023/04/12 08:57:32;;;;;;;3.90;3.03;;;11.70;99.90;;;;;;5054005;28;20452;-74
2023/04/12 09:00:00;;;;;;;6.93;4.13;;;11.70;99.90;;;;;;5059300;28;20500;-74
2023/04/12 09:02:26;;;;;;;3.90;3.40;;;11.60;99.90;;;;;;5060420;28;20406;-73
2023/04/12 09:04:52;;;;;;;5.23;3.40;;;11.50;99.90;;;;;;5054370;28;20518;-72
2023/04/12 09:07:22;;;;;;;3.00;2.70;;;11.50;99.90;;;;;;5051695;28;20413;-73
2023/04/12 09:09:49;;;;;;;2.50;2.30;;;11.50;99.90;;;;;;5053580;28;20425;-73
2023/04/12 09:12:15;;;;;;;2.40;2.20;;;11.50;99.90;;;;;;5055482;28;20414;-73
2023/04/12 09:14:44;;;;;;;3.40;2.77;;;11.60;99.90;;;;;;5058486;28;20425;-73
2023/04/12 09:17:24;;;;;;;5.33;3.60;;;11.70;99.90;;;;;;5053323;28;20445;-73
2023/04/12 09:19:50;;;;;;;2.70;2.10;;;11.80;99.90;;;;;;5058392;28;20451;-74
2023/04/12 09:22:16;;;;;;;3.40;2.80;;;11.80;99.90;;;;;;5052774;28;20809;-72
2023/04/12 09:24:49;;;;;;;4.37;2.60;;;11.90;99.90;;;;;;5056080;28;20428;-73
2023/04/12 09:27:15;;;;;;;3.53;3.00;;;12.10;99.90;;;;;;5051598;28;20212;-73
2023/04/12 09:29:41;;;;;;;3.83;2.77;;;12.20;99.90;;;;;;5051707;28;20898;-73
2023/04/12 09:32:08;;;;;;;3.33;3.13;;;12.30;99.90;;;;;;5054267;28;20401;-73
2023/04/12 09:34:35;;;;;;;3.60;2.87;;;12.30;99.90;;;;;;5053557;28;20337;-72
2023/04/12 09:37:15;;;;;;;3.03;2.60;;;12.40;99.90;;;;;;5051374;28;20907;-71
2023/04/12 09:39:41;;;;;;;3.73;3.23;;;12.50;99.90;;;;;;5051507;28;20425;-72
2023/04/12 09:42:08;;;;;;;4.20;2.93;;;12.50;99.90;;;;;;5056205;28;20448;-72
2023/04/12 09:44:34;;;;;;;3.50;2.60;;;12.50;99.90;;;;;;5051388;28;20437;-72
2023/04/12 09:47:01;;;;;;;2.63;2.43;;;12.40;99.90;;;;;;5053424;28;20389;-72
2023/04/12 09:49:41;;;;;;;2.83;2.60;;;12.50;99.90;;;;;;5053461;28;20402;-72
2023/04/12 09:52:11;;;;;;;4.73;3.30;;;12.80;99.90;;;;;;5051458;28;20397;-71
2023/04/12 09:54:42;;;;;;;3.20;2.90;;;12.90;99.90;;;;;;5050176;28;20421;-71
2023/04/12 09:57:08;;;;;;;2.93;2.43;;;13.10;99.90;;;;;;5051300;28;20455;-73
2023/04/12 09:59:39;;;;;;;3.17;2.87;;;13.50;99.90;;;;;;5052950;28;20414;-71
2023/04/12 10:02:27;;;;;;;3.23;2.23;;;13.70;99.90;;;;;;5052413;28;20397;-71
2023/04/12 10:04:53;;;;;;;4.23;3.10;;;14.40;99.90;;;;;;5051539;28;20430;-71
2023/04/12 10:07:19;;;;;;;3.07;2.77;;;15.80;99.90;;;;;;5051287;28;20400;-72
2023/04/12 10:09:45;;;;;;;3.30;3.00;;;17.10;99.90;;;;;;5051288;28;20409;-71
2023/04/12 10:12:11;;;;;;;2.50;2.30;;;17.70;99.90;;;;;;5051421;28;20229;-72
2023/04/12 10:14:37;;;;;;;2.13;1.93;;;17.50;99.90;;;;;;5051231;28;20418;-71
2023/04/12 10:17:04;;;;;;;2.33;2.13;;;17.10;99.90;;;;;;5051338;28;20640;-71
2023/04/12 10:19:32;;;;;;;2.00;1.77;;;16.50;99.90;;;;;;5051414;28;20457;-72
2023/04/12 10:22:00;;;;;;;1.50;1.40;;;15.90;99.90;;;;;;5053826;28;20467;-72
2023/04/12 10:24:27;;;;;;;3.00;1.77;;;15.30;99.90;;;;;;5055270;28;20923;-71
2023/04/12 10:27:01;;;;;;;2.73;2.10;;;14.80;99.90;;;;;;5054787;28;20402;-71
2023/04/12 10:29:29;;;;;;;2.77;2.40;;;14.40;99.90;;;;;;5054845;28;20406;-72
2023/04/12 10:31:56;;;;;;;1.20;1.10;;;14.00;99.90;;;;;;5054581;28;20420;-71
2023/04/12 10:34:25;;;;;;;1.43;1.07;;;13.90;99.90;;;;;;5054495;28;20432;-72
2023/04/12 10:36:52;;;;;;;1.50;0.80;;;13.80;99.90;;;;;;5054336;28;20436;-71
2023/04/12 10:39:18;;;;;;;1.60;0.90;;;13.80;99.90;;;;;;5054367;28;20457;-71
2023/04/12 10:42:24;;;;;;;1.17;0.93;;;14.00;99.90;;;;;;5054453;28;20414;-71
2023/04/12 10:44:52;;;;;;;0.80;0.70;;;14.20;99.90;;;;;;5054305;28;20413;-71
2023/04/12 10:48:02;;;;;;;1.20;0.90;;;14.50;99.90;;;;;;5054057;28;20397;-71
2023/04/12 10:50:30;;;;;;;1.60;1.10;;;14.60;99.90;;;;;;5032079;28;20749;-71
2023/04/12 10:53:16;;;;;;;1.07;0.90;;;14.70;99.90;;;;;;5015407;28;20418;-71
2023/04/12 10:55:43;;;;;;;1.50;1.40;;;14.80;99.90;;;;;;5046563;28;20475;-71
2023/04/12 10:58:09;;;;;;;2.40;1.50;;;14.80;99.90;;;;;;5054086;28;20897;-71
2023/04/12 11:00:56;;;;;;;4.70;1.80;;;14.70;99.90;;;;;;5054287;28;20484;-70
2023/04/12 11:03:23;;;;;;;2.37;1.63;;;14.80;99.90;;;;;;5053978;28;20481;-73
2023/04/12 11:06:03;;;;;;;3.50;1.90;;;15.00;99.90;;;;;;5054003;28;20459;-71
2023/04/12 11:08:30;;;;;;;3.63;2.17;;;15.60;99.90;;;;;;5053737;28;20401;-71
2023/04/12 11:11:04;;;;;;;4.13;1.90;;;16.90;99.90;;;;;;5054016;28;20411;-71
2023/04/12 11:13:38;;;;;;;3.40;1.80;;;17.80;99.90;;;;;;5054078;28;20424;-71
2023/04/12 11:16:05;;;;;;;1.53;1.20;;;18.40;99.90;;;;;;5052586;28;20417;-71
2023/04/12 11:18:34;;;;;;;7.50;2.70;;;20.00;99.90;;;;;;5053378;28;20877;-71
2023/04/12 11:21:00;;;;;;;1.70;1.60;;;22.50;99.90;;;;;;5053700;28;20406;-71
2023/04/12 11:23:25;;;;;;;2.00;1.70;;;24.70;99.90;;;;;;5053633;28;20903;-72
2023/04/12 11:25:54;;;;;;;2.80;1.30;;;26.60;99.90;;;;;;5053598;28;20405;-71
2023/04/12 11:28:21;;;;;;;2.40;1.90;;;27.20;86.60;;;;;;5053478;28;20182;-72
2023/04/12 11:30:56;;;;;;;2.63;1.63;;;26.60;65.90;;;;;;5053551;28;20921;-71
2023/04/12 11:33:36;;;;;;;1.70;1.33;;;25.80;67.20;;;;;;5052224;28;20408;-71
2023/04/12 11:36:13;;;;;;;3.00;1.27;;;24.90;66.80;;;;;;5053473;28;20755;-71
2023/04/12 11:38:39;;;;;;;2.03;1.00;;;24.10;77.60;;;;;;5053097;28;20531;-70
2023/04/12 11:41:06;;;;;;;2.30;1.27;;;23.50;94.80;;;;;;5053317;28;20485;-71
2023/04/12 11:43:34;;;;;;;2.80;1.37;;;22.90;92.10;;;;;;5051479;28;20186;-71
2023/04/12 11:46:00;;;;;;;3.80;1.90;;;22.50;87.80;;;;;;5053239;28;20883;-71
2023/04/12 11:48:27;;;;;;;2.60;1.10;;;22.40;99.10;;;;;;5052888;28;20401;-71
2023/04/12 11:50:53;;;;;;;2.03;1.30;;;22.50;99.90;;;;;;5053117;28;20820;-71
2023/04/12 11:53:19;;;;;;;2.80;1.30;;;22.60;97.10;;;;;;5052870;28;20413;-70
2023/04/12 11:55:49;;;;;;;2.23;1.10;;;23.00;94.20;;;;;;5052996;28;20194;-71
2023/04/12 11:58:15;;;;;;;1.90;1.00;;;23.40;81.00;;;;;;5052858;28;20816;-71
2023/04/12 12:00:44;;;;;;;1.47;1.37;;;23.60;86.70;;;;;;5052974;28;20489;-70
2023/04/12 12:03:10;;;;;;;1.50;1.13;;;23.50;86.00;;;;;;5052865;28;20409;-71
2023/04/12 12:05:40;;;;;;;1.73;1.17;;;23.20;81.50;;;;;;5052777;28;20780;-69
2023/04/12 12:08:07;;;;;;;1.83;1.60;;;22.90;84.60;;;;;;5052606;28;20814;-70
2023/04/12 12:10:34;;;;;;;2.53;1.00;;;22.60;91.50;;;;;;5052811;28;20416;-71
2023/04/12 12:13:00;;;;;;;1.37;1.00;;;22.20;75.80;;;;;;5052627;28;20457;-72
2023/04/12 12:15:32;;;;;;;1.43;1.20;;;22.10;89.30;;;;;;5052730;28;20839;-71
2023/04/12 12:17:57;;;;;;;4.70;1.30;;;22.50;92.60;;;;;;5052400;28;20252;-71
2023/04/12 12:20:23;;;;;;;3.80;2.57;;;22.80;67.50;;;;;;5052546;28;20402;-71
2023/04/12 12:22:49;;;;;;;2.37;1.37;;;22.90;66.70;;;;;;5052530;28;20167;-71
2023/04/12 12:25:17;;;;;;;3.93;1.40;;;23.10;68.90;;;;;;5052416;28;20274;-71
2023/04/12 12:27:47;;;;;;;3.10;1.20;;;23.10;58.60;;;;;;5052223;28;20420;-70
2023/04/12 12:30:15;;;;;;;3.90;1.77;;;22.60;55.50;;;;;;5052361;28;20417;-70
2023/04/12 12:32:41;;;;;;;3.20;1.30;;;23.10;67.00;;;;;;5052435;28;20424;-70
2023/04/12 12:35:14;;;;;;;3.00;1.10;;;23.90;72.50;;;;;;5052269;28;20946;-71
2023/04/12 12:37:54;;;;;;;2.90;1.10;;;24.50;67.90;;;;;;5052029;28;20449;-71
2023/04/12 12:40:31;;;;;;;2.53;1.30;;;25.80;72.60;;;;;;5052231;28;20505;-72
2023/04/12 12:42:57;;;;;;;3.80;1.03;;;27.20;67.00;;;;;;5052075;28;20409;-71
2023/04/12 12:45:26;;;;;;;2.63;1.10;;;28.30;57.10;;;;;;5051577;28;20430;-71
2023/04/12 12:48:01;;;;;;;2.60;1.30;;;28.40;53.60;;;;;;5051389;28;20170;-71
2023/04/12 12:50:33;;;;;;;1.47;1.10;;;28.00;52.00;;;;;;5051966;28;20433;-71
2023/04/12 12:53:00;;;;;;;1.93;1.10;;;27.20;50.60;;;;;;5052181;28;20783;-71
2023/04/12 12:55:26;;;;;;;5.50;1.43;;;26.50;51.90;;;;;;5051960;28;20487;-71
2023/04/12 12:57:54;;;;;;;3.87;1.30;;;25.80;53.30;;;;;;5051727;28;20453;-71
2023/04/12 13:00:21;;;;;;;9.27;6.47;;;25.40;53.70;;;;;;5051848;28;20401;-70
2023/04/12 13:02:49;;;;;;;4.67;2.23;;;24.90;51.50;;;;;;5051956;28;21028;-70
2023/04/12 13:05:15;;;;;;;2.80;1.50;;;24.50;54.70;;;;;;5051885;28;20453;-71
2023/04/12 13:07:41;;;;;;;3.73;1.30;;;23.80;53.10;;;;;;5051923;28;20867;-71
2023/04/12 13:10:07;;;;;;;3.17;1.50;;;23.50;53.40;;;;;;5051930;28;20190;-70
2023/04/12 13:12:33;;;;;;;6.10;2.73;;;24.70;57.70;;;;;;5051708;28;20187;-70
2023/04/12 13:15:02;;;;;;;5.83;2.13;;;25.60;56.30;;;;;;5050477;28;20437;-71
2023/04/12 13:17:28;;;;;;;4.40;1.87;;;25.60;52.30;;;;;;5051437;28;20421;-72
2023/04/12 13:19:54;;;;;;;4.80;1.70;;;24.70;47.50;;;;;;5051732;28;20504;-71
2023/04/12 13:22:20;;;;;;;4.60;1.47;;;23.80;48.60;;;;;;5051792;28;20536;-71
2023/04/12 13:24:45;;;;;;;2.60;1.40;;;24.00;49.50;;;;;;5051644;28;20433;-72
2023/04/12 13:27:15;;;;;;;4.40;2.10;;;23.30;48.00;;;;;;5051414;28;20250;-70
2023/04/12 13:29:41;;;;;;;4.23;1.93;;;24.10;50.80;;;;;;5051626;28;20206;-71
2023/04/12 13:32:07;;;;;;;5.17;1.20;;;24.50;52.10;;;;;;5051865;28;20410;-71
2023/04/12 13:34:33;;;;;;;4.00;1.30;;;24.00;48.60;;;;;;5051656;28;20195;-71
2023/04/12 13:36:59;;;;;;;2.50;1.20;;;22.90;48.00;;;;;;5051686;28;20409;-70
2023/04/12 13:39:25;;;;;;;4.63;1.40;;;22.70;53.30;;;;;;5051531;28;20281;-70
2023/04/12 13:41:51;;;;;;;3.63;1.50;;;22.30;54.80;;;;;;5051622;28;20195;-70
2023/04/12 13:44:16;;;;;;;3.23;1.27;;;21.90;55.00;;;;;;5051431;28;20457;-71
2023/04/12 13:46:42;;;;;;;4.00;1.67;;;21.50;56.10;;;;;;5051514;28;20437;-70
2023/04/12 13:49:08;;;;;;;2.73;1.37;;;21.40;55.80;;;;;;5051255;28;20171;-70
2023/04/12 13:51:33;;;;;;;4.23;1.50;;;21.90;58.20;;;;;;5051554;28;20700;-71
2023/04/12 13:53:59;;;;;;;4.20;1.33;;;22.00;55.30;;;;;;5050201;28;20668;-70
2023/04/12 13:56:25;;;;;;;2.83;1.70;;;21.60;53.60;;;;;;5053437;28;20195;-70